Portada
METAR-TAF:

METAR-TAF

Aeropuertos :

Guidonia Montecelio, Italia

latitud: 42-00N, longitud: 012-44E, altitud: 88 m

Observación

El informe se hizo hace 18 horas y 57 minutos, a las 17:55 UTC
Viento 6 kt del sur-suroeste
Temperatura 11°C
Humedad 62%
Presión 1011 hPa
Visibilidad 10 km o más
sin nubes por debajo de 1500 m y sin presencia de cumulonimbus.

METAR: LIRG 031755Z 21006KT CAVOK 11/04 Q1011 RMK SKC MON NE LIB NC VIS MIN 9999 BLU

Hora: 14:52 (12:52 UTC)

Pronóstico

El informe se hizo hace 22 horas y 52 minutos, a las 14:00 UTC
Pronóstico válido del 03 a las 15 UTC al 03 a las 24 UTC
Viento 5 kt con dirección variable
Visibilidad 10 km o más
sin nubes por debajo de 1500 m y sin presencia de cumulonimbus.

TAF: LIRG 031400Z 0315/0324 VRB05KT CAVOK

Observaciones y pronósticos meteorológicos de más de 4000 aeropuertos (mensajes METAR y TAF).

Los puntos amarillos y rojos representan las estaciones disponibles.

Ponga el ratón en el punto deseado para ver el nombre de la estación.

Haga clic para ver las observaciones y los pronósticos meteorológicos.

Para cambiar el mapa : haga clic en los botones verdes con una cruz de color negro para hacer un zoom, en el botón verde con un guión para alejar o en las flechas verdes para mapas adyacentes.


METAR-TAF: